Time;durP1;ratioP1;P1;durP2;ratioP2;P2;SDS_P1;SDS_P2;PMS_P1;PMS_P2;Temp;Humidity;BMP_temperature;BMP_pressure;BME280_temperature;BME280_humidity;BME280_pressure;Samples;Min_cycle;Max_cycle;Signal;HPM_P1;HPM_P2
2020/12/02 00:00:08;;;;;;;8.80;3.08;;;;;;;20.35;41.05;102306.88;4997838;28;20396;-88
2020/12/02 00:02:41;;;;;;;20.70;3.40;;;;;;;20.26;41.19;102299.78;4997877;28;20105;-88
2020/12/02 00:05:12;;;;;;;10.48;2.40;;;;;;;20.14;41.37;102289.44;4997591;28;20030;-88
2020/12/02 00:07:40;;;;;;;7.70;2.55;;;;;;;20.00;41.86;102281.38;4997358;28;20385;-88
2020/12/02 00:10:06;;;;;;;5.82;2.05;;;;;;;19.93;42.22;102284.72;4997512;28;20029;-90
2020/12/02 00:12:32;;;;;;;5.65;2.47;;;;;;;20.52;40.96;102280.09;4997623;28;20034;-87
2020/12/02 00:14:58;;;;;;;7.28;2.40;;;;;;;20.21;41.25;102273.84;4997174;28;20093;-87
2020/12/02 00:17:23;;;;;;;10.30;2.78;;;;;;;20.05;41.77;102272.88;4997464;28;20559;-89
2020/12/02 00:19:49;;;;;;;11.40;2.95;;;;;;;20.28;41.24;102272.50;4997322;28;20076;-88
2020/12/02 00:22:21;;;;;;;9.80;4.10;;;;;;;20.15;41.68;102266.88;4997342;28;20117;-89
2020/12/02 00:24:48;;;;;;;10.93;3.95;;;;;;;20.08;41.84;102265.81;4997181;28;20026;-88
2020/12/02 00:27:21;;;;;;;9.98;4.07;;;;;;;20.41;41.04;102277.75;4997051;28;20037;-90
2020/12/02 00:29:48;;;;;;;12.93;4.55;;;;;;;20.29;41.49;102271.34;4998195;28;20080;-89
2020/12/02 00:32:33;;;;;;;11.02;4.18;;;;;;;20.13;41.66;102282.25;4997161;28;20029;-88
2020/12/02 00:34:59;;;;;;;16.08;4.88;;;;;;;20.45;41.11;102281.47;4997075;28;20034;-90
2020/12/02 00:37:27;;;;;;;12.15;4.65;;;;;;;20.59;40.72;102286.72;4996983;28;20026;-88
2020/12/02 00:39:53;;;;;;;13.43;4.63;;;;;;;20.52;41.06;102285.66;4997029;28;20177;-88
2020/12/02 00:42:19;;;;;;;12.35;4.88;;;;;;;19.94;42.49;102279.97;4996802;28;20116;-89
2020/12/02 00:44:45;;;;;;;11.02;4.93;;;;;;;20.11;42.10;102287.34;4996389;28;20366;-89
2020/12/02 00:47:17;;;;;;;14.65;4.45;;;;;;;20.24;41.96;102289.00;4996417;28;20057;-89
2020/12/02 00:49:42;;;;;;;10.98;4.20;;;;;;;19.82;42.99;102280.75;4996672;28;20030;-90
2020/12/02 00:52:10;;;;;;;10.27;4.50;;;;;;;20.23;41.91;102285.41;4997427;28;20382;-89
2020/12/02 00:54:36;;;;;;;11.52;4.90;;;;;;;20.43;41.56;102278.19;4997756;28;20030;-88
2020/12/02 00:57:01;;;;;;;15.05;4.80;;;;;;;20.29;41.89;102274.91;4997436;28;20031;-87
2020/12/02 00:59:31;;;;;;;9.43;4.85;;;;;;;20.33;41.76;102275.03;4997455;28;20031;-90
2020/12/02 01:02:03;;;;;;;14.10;5.85;;;;;;;20.38;41.66;102266.50;4997865;28;20026;-88
2020/12/02 01:04:29;;;;;;;15.57;5.15;;;;;;;20.48;41.62;102264.13;4997461;28;20105;-90
2020/12/02 01:06:56;;;;;;;14.02;5.40;;;;;;;20.52;41.48;102255.91;4997326;28;20101;-87
2020/12/02 01:09:23;;;;;;;19.33;5.50;;;;;;;20.50;41.50;102256.28;4996415;28;20018;-88
2020/12/02 01:11:52;;;;;;;13.52;5.03;;;;;;;20.39;41.58;102257.81;4996567;28;20436;-88
2020/12/02 01:14:19;;;;;;;9.45;4.40;;;;;;;20.57;41.38;102252.94;4996404;28;20038;-89
2020/12/02 01:16:50;;;;;;;9.35;3.70;;;;;;;20.33;41.78;102252.81;4997241;28;20062;-90
2020/12/02 01:19:22;;;;;;;14.02;4.20;;;;;;;20.50;41.57;102247.13;4996192;28;20026;-89
2020/12/02 01:22:26;;;;;;;11.00;4.45;;;;;;;20.72;40.86;102248.66;4997244;28;20025;-89
2020/12/02 01:24:57;;;;;;;14.38;4.85;;;;;;;20.80;40.63;102247.75;4997129;28;20045;-89
2020/12/02 01:27:49;;;;;;;13.35;4.78;;;;;;;20.97;40.26;102244.72;4996276;28;20109;-90
2020/12/02 01:30:15;;;;;;;16.13;4.93;;;;;;;21.06;40.23;102237.09;4997161;28;20026;-90
2020/12/02 01:32:43;;;;;;;11.57;3.90;;;;;;;20.99;40.14;102236.03;4995941;28;20034;-86
2020/12/02 01:35:12;;;;;;;9.93;4.10;;;;;;;20.97;40.01;102232.81;4995972;28;20515;-90
2020/12/02 01:37:41;;;;;;;15.52;3.95;;;;;;;20.98;40.19;102229.69;4996015;28;20053;-90
2020/12/02 01:40:20;;;;;;;12.00;4.18;;;;;;;20.82;40.44;102231.53;4996319;28;20571;-90
2020/12/02 01:42:54;;;;;;;10.82;4.60;;;;;;;20.88;40.02;102230.16;4995902;28;20101;-90
2020/12/02 01:45:24;;;;;;;9.38;4.28;;;;;;;20.94;39.70;102225.19;5012045;28;20023;-91
2020/12/02 01:47:55;;;;;;;9.27;3.67;;;;;;;20.75;40.26;102225.75;4995401;28;20085;-89
2020/12/02 01:50:46;;;;;;;9.20;4.45;;;;;;;20.77;40.00;102221.44;4995659;28;20041;-86
2020/12/02 01:53:42;;;;;;;11.88;4.90;;;;;;;20.81;39.93;102227.16;4996618;28;20034;-88
2020/12/02 01:56:26;;;;;;;10.73;4.07;;;;;;;20.86;40.04;102231.66;4995687;28;20033;-91
2020/12/02 01:59:15;;;;;;;9.23;4.80;;;;;;;20.75;40.19;102223.78;4996577;28;20030;-89
2020/12/02 02:02:00;;;;;;;11.18;4.40;;;;;;;20.81;40.09;102224.38;4995399;28;20084;-89
2020/12/02 02:04:51;;;;;;;12.73;4.60;;;;;;;20.86;40.07;102215.81;4995425;28;20044;-90
2020/12/02 02:07:23;;;;;;;9.82;5.07;;;;;;;20.82;40.08;102214.88;4995483;28;20049;-90
2020/12/02 02:09:55;;;;;;;7.45;4.20;;;;;;;20.96;39.59;102208.97;4995302;28;20089;-88
2020/12/02 02:12:38;;;;;;;7.93;4.40;;;;;;;21.02;39.74;102197.28;4995241;28;20134;-87
2020/12/02 02:15:22;;;;;;;8.00;4.18;;;;;;;20.58;40.49;102195.44;4995289;28;20117;-92
2020/12/02 02:17:59;;;;;;;7.97;4.05;;;;;;;20.61;40.52;102181.66;4995123;28;20034;-90
2020/12/02 02:20:34;;;;;;;12.95;5.28;;;;;;;20.64;40.34;102186.53;4994858;28;20035;-90
2020/12/02 02:23:01;;;;;;;16.23;4.47;;;;;;;20.70;40.30;102185.09;4995884;28;20034;-89
2020/12/02 02:25:27;;;;;;;8.98;4.22;;;;;;;20.60;40.33;102184.78;4994399;28;20117;-92
2020/12/02 02:27:57;;;;;;;6.97;3.78;;;;;;;20.71;40.41;102185.94;4996164;28;20035;-91
2020/12/02 02:30:23;;;;;;;;;;;;;;;20.70;40.38;102175.97;4996548;28;20516;-91
2020/12/02 02:32:50;;;;;;;11.68;4.53;;;;;;;20.52;40.77;102178.19;4995831;28;19929;-91
2020/12/02 02:35:15;;;;;;;8.23;3.13;;;;;;;20.74;40.24;102172.16;4995578;28;20038;-89
2020/12/02 02:37:41;;;;;;;7.13;2.72;;;;;;;20.75;40.30;102165.44;4994396;28;20037;-91
2020/12/02 02:40:11;;;;;;;9.50;3.28;;;;;;;20.58;40.89;102156.56;4995595;28;20279;-91
2020/12/02 02:42:42;;;;;;;;;;;;;;;20.60;40.81;102149.47;4996165;28;20399;-91
2020/12/02 02:45:27;;;;;;;4.50;2.95;;;;;;;20.68;40.69;102154.09;4995499;28;19917;-89
2020/12/02 02:47:58;;;;;;;7.15;2.97;;;;;;;20.75;40.61;102151.56;4994517;28;20072;-92
2020/12/02 02:50:25;;;;;;;8.07;2.75;;;;;;;20.82;40.38;102152.94;4995369;28;20525;-89
2020/12/02 02:52:52;;;;;;;6.93;2.67;;;;;;;20.85;40.43;102135.56;4995644;28;20035;-90
2020/12/02 02:55:23;;;;;;;4.82;2.75;;;;;;;20.83;40.36;102132.34;4995500;28;20034;-90
2020/12/02 02:57:49;;;;;;;8.07;2.63;;;;;;;20.78;40.79;102125.03;4994287;28;20034;-87
2020/12/02 03:00:26;;;;;;;5.78;3.10;;;;;;;20.68;40.83;102115.22;4994407;28;20030;-89
2020/12/02 03:02:52;;;;;;;3.88;2.58;;;;;;;20.82;40.98;102114.06;4994441;28;20037;-89
2020/12/02 03:05:18;;;;;;;6.88;3.10;;;;;;;20.62;41.01;102111.06;4994266;28;20374;-89
2020/12/02 03:07:44;;;;;;;7.25;2.40;;;;;;;20.56;41.16;102108.88;4994350;28;20030;-89
2020/12/02 03:10:15;;;;;;;9.10;3.50;;;;;;;20.44;41.35;102099.41;4994189;28;20041;-88
2020/12/02 03:12:44;;;;;;;4.20;2.45;;;;;;;20.41;41.57;102105.63;4995231;28;20512;-92
2020/12/02 03:15:10;;;;;;;4.90;2.72;;;;;;;20.39;41.57;102099.59;4994134;28;20075;-92
2020/12/02 03:17:36;;;;;;;5.68;2.72;;;;;;;20.24;42.23;102094.72;4994400;28;20062;-91
2020/12/02 03:20:14;;;;;;;7.35;2.67;;;;;;;20.58;41.22;102089.91;4994160;28;20052;-89
2020/12/02 03:22:40;;;;;;;4.18;2.10;;;;;;;20.40;41.64;102087.34;4993750;28;20025;-90
2020/12/02 03:25:06;;;;;;;5.90;2.60;;;;;;;20.24;41.90;102089.97;4993567;28;20555;-91
2020/12/02 03:27:32;;;;;;;5.43;2.80;;;;;;;20.34;41.99;102071.28;4994360;28;20026;-89
2020/12/02 03:29:57;;;;;;;4.30;2.05;;;;;;;19.98;42.68;102069.28;4994108;28;20030;-91
2020/12/02 03:32:23;;;;;;;7.65;2.45;;;;;;;20.32;41.78;102057.72;4993088;28;20509;-90
2020/12/02 03:34:49;;;;;;;4.22;1.95;;;;;;;20.18;42.27;102060.06;4993492;28;20033;-91
2020/12/02 03:37:15;;;;;;;2.80;1.80;;;;;;;20.19;42.16;102056.13;4994008;28;20076;-91
2020/12/02 03:39:40;;;;;;;3.72;2.10;;;;;;;20.63;41.03;102042.44;4993677;28;20135;-90
2020/12/02 03:42:06;;;;;;;2.20;1.80;;;;;;;20.58;41.08;102032.41;4993925;28;20073;-90
2020/12/02 03:44:31;;;;;;;5.18;1.85;;;;;;;20.67;40.83;102033.06;4994767;28;20472;-88
2020/12/02 03:46:57;;;;;;;3.58;1.92;;;;;;;20.42;41.57;102029.50;4993378;28;20027;-91
2020/12/02 03:49:23;;;;;;;4.43;2.35;;;;;;;20.49;41.38;102010.31;4994846;28;20114;-89
2020/12/02 03:51:48;;;;;;;4.68;2.13;;;;;;;20.67;41.01;102008.06;4994751;28;20101;-89
2020/12/02 03:54:14;;;;;;;6.68;2.67;;;;;;;20.71;40.75;102011.78;4994849;28;20495;-83
2020/12/02 03:56:39;;;;;;;6.85;2.35;;;;;;;20.70;41.00;102007.38;4994652;28;20544;-89
2020/12/02 03:59:06;;;;;;;6.25;2.42;;;;;;;20.63;40.88;102000.78;4994498;28;20057;-89
2020/12/02 04:01:31;;;;;;;2.90;1.80;;;;;;;20.65;40.91;101995.72;4993751;28;20043;-87
2020/12/02 04:03:57;;;;;;;3.63;2.40;;;;;;;20.67;40.84;101996.16;4994565;28;20389;-90
2020/12/02 04:06:23;;;;;;;3.70;1.77;;;;;;;20.65;40.90;101992.94;4993532;28;20034;-90
2020/12/02 04:08:49;;;;;;;3.30;2.00;;;;;;;20.64;40.89;101991.31;4994911;28;20022;-89
2020/12/02 04:11:16;;;;;;;6.45;2.60;;;;;;;20.17;42.13;101986.25;4993290;28;20022;-91
2020/12/02 04:13:42;;;;;;;3.97;2.50;;;;;;;20.28;42.04;101987.41;4994712;28;20056;-87
2020/12/02 04:16:08;;;;;;;7.00;2.35;;;;;;;20.22;42.13;101986.84;4993593;28;20503;-90
2020/12/02 04:18:34;;;;;;;4.90;2.40;;;;;;;20.40;41.45;101981.88;4993709;28;20094;-90
2020/12/02 04:21:00;;;;;;;6.15;2.13;;;;;;;20.41;41.85;101980.69;4993463;28;20034;-91
2020/12/02 04:23:25;;;;;;;6.90;2.65;;;;;;;20.55;41.57;101994.22;4993503;28;20030;-89
2020/12/02 04:25:51;;;;;;;3.83;2.00;;;;;;;20.63;41.60;101989.69;4993428;28;20074;-92
2020/12/02 04:28:17;;;;;;;7.03;2.30;;;;;;;20.52;41.89;101992.16;4993493;28;20022;-90
2020/12/02 04:30:43;;;;;;;15.98;3.22;;;;;;;20.26;42.67;101988.94;4994610;28;20416;-92
2020/12/02 04:33:10;;;;;;;4.93;2.50;;;;;;;20.63;41.56;101989.69;4993592;28;20022;-91
2020/12/02 04:35:37;;;;;;;4.22;2.20;;;;;;;20.44;42.18;101982.00;4993024;28;20092;-90
2020/12/02 04:38:03;;;;;;;2.38;1.90;;;;;;;20.50;41.79;101980.59;4994463;28;20045;-90
2020/12/02 04:40:33;;;;;;;5.32;2.10;;;;;;;20.65;41.61;101973.50;4994274;28;20481;-91
2020/12/02 04:43:12;;;;;;;2.42;2.00;;;;;;;20.72;41.57;101976.50;4994590;28;20665;-90
2020/12/02 04:45:38;;;;;;;2.42;1.60;;;;;;;20.72;41.61;101982.03;4996852;28;20041;-89
2020/12/02 04:48:11;;;;;;;5.15;2.10;;;;;;;20.47;42.16;101965.44;4996349;28;20404;-91
2020/12/02 04:50:37;;;;;;;2.10;1.85;;;;;;;20.47;42.29;101961.84;4996777;28;20033;-89
2020/12/02 04:53:11;;;;;;;2.35;1.70;;;;;;;20.28;42.60;101954.13;5013048;28;20373;-90
2020/12/02 04:55:36;;;;;;;4.00;1.80;;;;;;;20.47;42.25;101957.09;4996834;28;20080;-89
2020/12/02 04:58:20;;;;;;;4.88;2.15;;;;;;;20.45;42.46;101959.44;4996707;28;20065;-89
2020/12/02 05:00:46;;;;;;;2.78;1.85;;;;;;;20.27;42.89;101952.50;4996592;28;20029;-90
2020/12/02 05:03:14;;;;;;;4.07;2.05;;;;;;;20.32;42.45;101952.25;4996676;28;20484;-90
2020/12/02 05:05:40;;;;;;;4.72;1.83;;;;;;;20.34;42.79;101949.16;4996555;28;20133;-90
2020/12/02 05:08:22;;;;;;;2.55;1.85;;;;;;;20.10;43.31;101945.25;4996953;28;20113;-91
2020/12/02 05:10:50;;;;;;;2.95;2.00;;;;;;;19.83;44.18;101934.84;4996392;28;20081;-89
2020/12/02 05:13:15;;;;;;;4.30;2.25;;;;;;;19.93;43.93;101937.16;4996294;28;20023;-91
2020/12/02 05:15:41;;;;;;;4.32;2.13;;;;;;;20.12;43.29;101931.84;4996387;28;20030;-90
2020/12/02 05:18:19;;;;;;;4.00;2.03;;;;;;;18.93;46.75;101930.19;4996289;28;20035;-93
2020/12/02 05:21:08;;;;;;;5.25;2.63;;;;;;;19.46;45.40;101937.56;4996370;28;20112;-92
2020/12/02 05:23:33;;;;;;;4.65;1.95;;;;;;;20.24;43.45;101942.09;4996336;28;20469;-89
2020/12/02 05:25:59;;;;;;;3.10;1.63;;;;;;;19.88;44.08;101945.72;4996159;28;20045;-90
2020/12/02 05:28:27;;;;;;;2.92;1.20;;;;;;;19.78;44.42;101933.13;4996072;28;20042;-90
2020/12/02 05:31:17;;;;;;;5.50;1.20;;;;;;;18.48;46.78;101936.41;4996088;28;20034;-90
2020/12/02 05:33:42;;;;;;;;;;;;;;;19.74;43.27;101937.75;4996487;28;20036;-91
2020/12/02 05:36:19;;;;;;;6.32;1.25;;;;;;;19.38;43.32;101947.63;4996202;28;19914;-91
2020/12/02 05:39:18;;;;;;;6.72;1.85;;;;;;;19.37;43.22;101948.78;4995910;28;20085;-91
2020/12/02 05:41:50;;;;;;;8.43;2.10;;;;;;;19.34;42.82;101943.09;4982824;28;20042;-90
2020/12/02 05:44:20;;;;;;;6.28;2.15;;;;;;;19.36;42.63;101947.16;4996025;28;20397;-92
2020/12/02 05:46:49;;;;;;;;;;;;;;;18.78;43.22;101945.47;4996432;28;20046;-90
2020/12/02 05:49:37;;;;;;;9.35;2.60;;;;;;;19.10;41.27;101952.16;4994539;28;19918;-90
2020/12/02 05:52:03;;;;;;;14.65;2.78;;;;;;;19.24;41.87;101943.53;4996092;28;20674;-81
2020/12/02 05:54:32;;;;;;;20.88;4.03;;;;;;;19.26;41.48;101935.69;4994128;28;20038;-81
2020/12/02 05:57:01;;;;;;;10.37;2.60;;;;;;;19.22;41.35;101932.00;5011112;28;20026;-89
2020/12/02 05:59:27;;;;;;;10.88;2.45;;;;;;;19.23;40.59;101928.06;4995383;28;20037;-81
2020/12/02 06:01:57;;;;;;;11.25;2.45;;;;;;;19.40;40.44;101930.63;4993924;28;20022;-91
2020/12/02 06:04:23;;;;;;;;;;;;;;;19.29;40.32;101923.94;4994839;28;20026;-90
2020/12/02 06:06:56;;;;;;;17.95;3.35;;;;;;;19.32;40.33;101934.31;4995824;28;19968;-92
2020/12/02 06:09:57;;;;;;;12.43;3.17;;;;;;;19.18;40.25;101933.81;4995400;28;20030;-82
2020/12/02 06:12:40;;;;;;;15.43;3.38;;;;;;;19.26;39.51;101928.19;4957494;28;20668;-83
2020/12/02 06:15:17;;;;;;;13.82;3.38;;;;;;;19.22;39.65;101941.13;4993774;28;20073;-80
2020/12/02 06:17:43;;;;;;;15.50;4.10;;;;;;;19.54;39.08;101930.31;4995411;28;20026;-81
2020/12/02 06:20:09;;;;;;;13.18;3.03;;;;;;;19.29;39.66;101944.13;4995086;28;20089;-89
2020/12/02 06:22:53;;;;;;;12.48;3.72;;;;;;;19.15;39.53;101940.88;4995153;28;20088;-83
2020/12/02 06:25:40;;;;;;;16.83;3.28;;;;;;;19.12;39.62;101936.81;4993691;28;20034;-80
2020/12/02 06:28:10;;;;;;;13.73;3.58;;;;;;;19.00;39.73;101935.97;4995105;28;20508;-87
2020/12/02 06:30:35;;;;;;;14.00;3.03;;;;;;;19.13;39.69;101929.31;4993939;28;20026;-81
2020/12/02 06:33:18;;;;;;;16.05;3.65;;;;;;;19.05;39.52;101938.53;5010368;28;20279;-87
2020/12/02 06:35:49;;;;;;;13.40;3.30;;;;;;;18.90;39.74;101937.22;4993809;28;20108;-80
2020/12/02 06:38:25;;;;;;;21.42;4.55;;;;;;;18.68;40.11;101934.81;4993831;28;20753;-80
2020/12/02 06:40:57;;;;;;;13.35;3.25;;;;;;;18.63;40.27;101933.03;4993871;28;20034;-81
2020/12/02 06:43:25;;;;;;;13.75;3.42;;;;;;;18.41;40.88;101931.41;4993946;28;20068;-90
2020/12/02 06:45:50;;;;;;;17.10;3.90;;;;;;;18.16;41.58;101922.16;4993563;28;20034;-90
2020/12/02 06:48:33;;;;;;;15.32;4.45;;;;;;;18.44;40.77;101924.38;4993291;28;20493;-89
2020/12/02 06:50:59;;;;;;;19.75;5.55;;;;;;;18.37;40.65;101926.91;4994882;28;20030;-90
2020/12/02 06:53:26;;;;;;;14.82;3.95;;;;;;;18.40;40.73;101929.78;4995197;28;20657;-90
2020/12/02 06:55:57;;;;;;;14.02;3.63;;;;;;;18.37;40.68;101924.13;4995343;28;20457;-81
2020/12/02 06:58:22;;;;;;;15.82;4.00;;;;;;;18.41;40.54;101931.41;4993471;28;20487;-81
2020/12/02 07:00:51;;;;;;;22.88;4.45;;;;;;;18.36;40.59;101917.75;4994856;28;20034;-91
2020/12/02 07:03:25;;;;;;;23.98;5.45;;;;;;;18.29;40.75;101918.31;4993870;28;20026;-88
2020/12/02 07:06:24;;;;;;;17.48;4.72;;;;;;;18.01;41.17;101912.47;4989809;28;20065;-82
2020/12/02 07:09:17;;;;;;;21.92;4.97;;;;;;;17.95;40.76;101910.25;5004117;28;20042;-88
2020/12/02 07:11:55;;;;;;;41.42;6.85;;;;;;;18.41;39.85;101911.22;4994590;28;20027;-91
2020/12/02 07:14:42;;;;;;;19.40;4.15;;;;;;;18.29;39.60;101911.97;5000556;28;20038;-93
2020/12/02 07:17:11;;;;;;;21.35;7.40;;;;;;;18.06;40.34;101911.50;4995150;28;20033;-80
2020/12/02 07:19:40;;;;;;;19.40;5.28;;;;;;;17.89;40.56;101903.28;4994234;28;20030;-78
2020/12/02 07:22:22;;;;;;;25.63;6.80;;;;;;;17.64;40.89;101892.00;4993640;28;20076;-83
2020/12/02 07:24:50;;;;;;;20.08;5.47;;;;;;;17.70;40.62;101893.47;4992616;28;20389;-80
2020/12/02 07:27:20;;;;;;;20.25;4.82;;;;;;;17.64;40.62;101902.25;4993355;28;20049;-82
2020/12/02 07:29:57;;;;;;;26.45;4.65;;;;;;;17.30;41.35;101892.16;4993984;28;20047;-81
2020/12/02 07:32:23;;;;;;;15.55;3.85;;;;;;;17.18;41.76;101903.91;4994061;28;20432;-94
2020/12/02 07:34:48;;;;;;;21.83;5.15;;;;;;;17.31;41.47;101883.56;4993810;28;20038;-83
2020/12/02 07:37:17;;;;;;;26.42;5.80;;;;;;;17.16;41.62;101906.19;4995855;28;20041;-82
2020/12/02 07:39:55;;;;;;;23.75;5.53;;;;;;;16.98;41.97;101908.16;4995687;28;20026;-90
2020/12/02 07:42:28;;;;;;;14.13;4.70;;;;;;;16.99;41.75;101897.94;4995159;28;20034;-81
2020/12/02 07:45:05;;;;;;;28.02;6.88;;;;;;;16.88;41.78;101890.00;4997633;28;20028;-81
2020/12/02 07:47:34;;;;;;;29.75;5.45;;;;;;;16.91;41.87;101889.34;4996967;28;20060;-84
2020/12/02 07:50:25;;;;;;;22.08;5.45;;;;;;;16.81;41.69;101895.22;5012635;28;20496;-82
2020/12/02 07:52:55;;;;;;;28.15;5.93;;;;;;;16.84;41.73;101888.22;4995721;28;20030;-82
2020/12/02 07:55:32;;;;;;;16.17;5.30;;;;;;;16.28;43.21;101898.28;4995470;28;20137;-83
2020/12/02 07:57:59;;;;;;;26.67;6.32;;;;;;;16.56;42.05;101907.88;4996937;28;20861;-86
2020/12/02 08:00:27;;;;;;;20.15;5.03;;;;;;;16.78;41.58;101915.19;4996961;28;20065;-82
2020/12/02 08:02:53;;;;;;;21.27;5.68;;;;;;;17.09;40.88;101901.16;4995538;28;20709;-82
2020/12/02 08:05:39;;;;;;;23.55;6.55;;;;;;;16.95;41.14;101914.34;4995892;28;20025;-85
2020/12/02 08:08:05;;;;;;;23.17;5.78;;;;;;;17.18;40.14;101904.72;4991684;28;20023;-81
2020/12/02 08:10:36;;;;;;;21.02;5.82;;;;;;;17.57;39.44;101908.31;4991776;28;20030;-90
2020/12/02 08:13:22;;;;;;;24.08;6.15;;;;;;;17.46;39.76;101893.25;4993666;28;20046;-79
2020/12/02 08:15:54;;;;;;;27.77;5.97;;;;;;;17.19;40.21;101902.75;4990901;28;20404;-93
2020/12/02 08:18:25;;;;;;;21.90;5.07;;;;;;;16.74;41.10;101902.38;4994449;28;20048;-90
2020/12/02 08:20:52;;;;;;;24.65;6.00;;;;;;;16.85;41.06;101914.69;4996402;28;20407;-78
2020/12/02 08:23:26;;;;;;;20.42;5.63;;;;;;;16.86;40.53;101922.66;4998809;28;20045;-88
2020/12/02 08:26:15;;;;;;;18.27;4.57;;;;;;;16.61;41.28;101924.25;4997406;28;20030;-80
2020/12/02 08:28:41;;;;;;;17.93;5.53;;;;;;;16.80;40.83;101918.44;4979269;28;20090;-82
2020/12/02 08:31:26;;;;;;;26.05;6.35;;;;;;;16.89;40.31;101926.69;5002819;28;20024;-84
2020/12/02 08:34:12;;;;;;;26.08;5.78;;;;;;;16.70;40.82;101928.97;5007917;28;20031;-87
2020/12/02 08:36:41;;;;;;;23.15;4.38;;;;;;;16.76;40.42;101934.00;5002380;28;20029;-81
2020/12/02 08:39:08;;;;;;;19.70;5.93;;;;;;;16.68;41.11;101921.00;5001836;28;20022;-93
2020/12/02 08:41:46;;;;;;;19.27;5.18;;;;;;;16.73;40.64;101920.06;5000315;28;20033;-81
2020/12/02 08:44:15;;;;;;;31.95;6.38;;;;;;;16.50;40.89;101927.66;5000249;28;20025;-85
2020/12/02 08:47:00;;;;;;;26.33;5.47;;;;;;;16.61;40.62;101910.44;5003223;28;20144;-81
2020/12/02 08:49:29;;;;;;;19.23;5.32;;;;;;;16.54;40.93;101910.13;4995080;28;20141;-80
2020/12/02 08:51:55;;;;;;;16.45;4.90;;;;;;;16.78;40.73;101903.34;4996092;28;20113;-94
2020/12/02 08:54:24;;;;;;;22.20;4.88;;;;;;;16.74;40.68;101894.88;4996225;28;20074;-89
2020/12/02 08:56:51;;;;;;;30.15;4.90;;;;;;;16.67;41.04;101893.72;4998892;28;20539;-80
2020/12/02 08:59:17;;;;;;;20.55;5.88;;;;;;;16.57;41.14;101889.38;4996048;28;20054;-80
2020/12/02 09:01:43;;;;;;;15.55;4.75;;;;;;;16.40;41.38;101881.91;4996257;28;20026;-80
2020/12/02 09:04:09;;;;;;;25.90;5.20;;;;;;;16.62;40.86;101881.75;4995938;28;20030;-81
2020/12/02 09:06:35;;;;;;;20.33;4.82;;;;;;;16.68;40.77;101876.84;4997710;28;20034;-94
2020/12/02 09:09:01;;;;;;;27.60;5.18;;;;;;;16.79;40.53;101866.31;4999065;28;20030;-93
2020/12/02 09:11:35;;;;;;;17.80;4.40;;;;;;;16.73;40.61;101871.19;4997665;28;20077;-86
2020/12/02 09:14:02;;;;;;;19.60;4.45;;;;;;;16.63;40.94;101863.25;5008872;28;20385;-94
2020/12/02 09:16:34;;;;;;;15.25;4.95;;;;;;;16.47;41.11;101864.84;5000207;28;20089;-79
2020/12/02 09:19:00;;;;;;;31.30;5.78;;;;;;;16.73;40.85;101843.59;4995153;28;20053;-95
2020/12/02 09:21:27;;;;;;;18.65;5.40;;;;;;;16.59;41.10;101852.03;4996620;28;20030;-81
2020/12/02 09:23:54;;;;;;;24.85;6.18;;;;;;;16.59;41.08;101851.22;4994664;28;20041;-81
2020/12/02 09:26:22;;;;;;;19.05;4.82;;;;;;;16.63;40.58;101852.19;4994761;28;20034;-96
2020/12/02 09:28:49;;;;;;;19.42;5.32;;;;;;;16.81;40.57;101859.31;4994713;28;20117;-81
2020/12/02 09:31:16;;;;;;;20.65;5.13;;;;;;;16.78;40.80;101860.00;4995862;28;20034;-96
2020/12/02 09:33:42;;;;;;;23.08;5.90;;;;;;;16.90;40.31;101848.25;4996642;28;20034;-92
2020/12/02 09:36:08;;;;;;;22.67;4.90;;;;;;;16.65;40.94;101850.72;4998322;28;20039;-96
2020/12/02 09:38:34;;;;;;;23.55;4.85;;;;;;;16.72;40.77;101844.75;4995317;28;20504;-81
2020/12/02 09:41:24;;;;;;;19.05;4.07;;;;;;;16.52;41.08;101851.72;4995957;28;20161;-92
2020/12/02 09:44:19;;;;;;;17.63;4.47;;;;;;;16.89;40.20;101836.41;4995592;28;20022;-96
2020/12/02 09:46:57;;;;;;;16.10;4.30;;;;;;;16.82;40.17;101832.53;4997110;28;20018;-83
2020/12/02 09:49:23;;;;;;;18.80;4.38;;;;;;;16.66;40.87;101834.97;4994508;28;20066;-95
2020/12/02 09:52:29;;;;;;;15.45;4.35;;;;;;;16.72;41.04;101838.41;4996802;28;20051;-94
2020/12/02 09:54:56;;;;;;;17.70;3.95;;;;;;;16.97;40.32;101840.28;5014951;28;20123;-80
2020/12/02 09:57:27;;;;;;;17.40;4.97;;;;;;;16.61;41.45;101840.66;5015146;28;20053;-81
2020/12/02 09:59:55;;;;;;;21.67;4.97;;;;;;;16.54;41.16;101843.91;5000562;28;20388;-81
2020/12/02 10:02:30;;;;;;;16.17;4.93;;;;;;;16.48;41.47;101836.97;4996018;28;20069;-84
2020/12/02 10:05:05;;;;;;;23.58;5.55;;;;;;;16.61;40.91;101821.34;4999475;28;20026;-96
2020/12/02 10:07:39;;;;;;;25.77;6.75;;;;;;;16.95;40.22;101826.00;4999735;28;20060;-81
2020/12/02 10:10:25;;;;;;;17.27;4.70;;;;;;;16.86;40.29;101822.47;5004222;28;20049;-80
2020/12/02 10:13:26;;;;;;;18.40;5.20;;;;;;;16.65;40.68;101817.59;5003546;28;20034;-92
2020/12/02 10:16:09;;;;;;;20.88;5.72;;;;;;;16.99;39.85;101815.91;4998870;28;20415;-93
2020/12/02 10:19:23;;;;;;;16.27;4.63;;;;;;;16.90;39.75;101812.38;5004030;28;20081;-80
2020/12/02 10:22:26;;;;;;;17.52;5.22;;;;;;;16.82;40.04;101804.94;5003604;28;20051;-85
2020/12/02 10:25:13;;;;;;;22.50;5.05;;;;;;;16.96;39.82;101800.00;4994773;28;20182;-81
2020/12/02 10:28:12;;;;;;;13.55;4.88;;;;;;;16.61;40.19;101783.53;4994864;28;20026;-80
2020/12/02 10:30:58;;;;;;;28.55;5.95;;;;;;;16.74;40.34;101786.44;4996217;28;20049;-92
2020/12/02 10:33:42;;;;;;;13.68;5.18;;;;;;;16.90;39.88;101784.75;4995370;28;20062;-85
2020/12/02 10:36:07;;;;;;;23.20;7.30;;;;;;;16.87;40.19;101785.44;5000261;28;20042;-94
2020/12/02 10:39:10;;;;;;;16.50;5.00;;;;;;;16.74;40.61;101790.03;4997912;28;20026;-81
2020/12/02 10:42:09;;;;;;;18.58;5.15;;;;;;;16.63;40.81;101780.47;4973197;28;20034;-94
2020/12/02 10:44:38;;;;;;;18.63;4.45;;;;;;;16.81;40.62;101773.75;4993435;28;20030;-80
2020/12/02 10:47:19;;;;;;;18.63;5.13;;;;;;;16.92;40.42;101763.16;4996082;28;20030;-96
2020/12/02 10:49:46;;;;;;;21.75;5.68;;;;;;;16.98;40.30;101752.75;4993907;28;20042;-81
2020/12/02 10:52:14;;;;;;;14.30;3.58;;;;;;;17.28;39.71;101745.28;4995493;28;20441;-81
2020/12/02 10:54:44;;;;;;;16.92;3.42;;;;;;;17.81;38.55;101743.81;4997857;28;20038;-81
2020/12/02 10:57:16;;;;;;;14.48;4.38;;;;;;;18.27;37.27;101743.53;4997314;28;20037;-96
2020/12/02 10:59:45;;;;;;;16.10;4.05;;;;;;;17.35;39.27;101734.50;4996788;28;20042;-82
2020/12/02 11:02:18;;;;;;;11.43;3.50;;;;;;;17.65;38.57;101721.47;4996424;28;20131;-91
2020/12/02 11:04:49;;;;;;;16.92;4.07;;;;;;;17.63;38.88;101723.75;4995860;28;20034;-81
2020/12/02 11:07:25;;;;;;;15.05;4.60;;;;;;;17.51;39.02;101721.72;4994214;28;20026;-80
2020/12/02 11:10:22;;;;;;;9.43;3.72;;;;;;;17.63;38.74;101718.22;4994401;28;20058;-80
2020/12/02 11:13:01;;;;;;;17.08;2.88;;;;;;;17.52;38.75;101703.19;4995733;28;20024;-96
2020/12/02 11:16:06;;;;;;;13.98;3.75;;;;;;;17.52;38.69;101692.94;4996488;28;20231;-96
2020/12/02 11:18:45;;;;;;;10.18;2.83;;;;;;;17.60;38.41;101694.81;4996340;28;20409;-82
2020/12/02 11:21:26;;;;;;;11.80;3.05;;;;;;;17.63;38.64;101683.13;4977676;28;20026;-81
2020/12/02 11:24:18;;;;;;;14.82;4.45;;;;;;;18.30;36.88;101682.00;4987589;28;20027;-80
2020/12/02 11:26:44;;;;;;;12.82;3.40;;;;;;;17.98;37.65;101674.53;4995629;28;20026;-82
2020/12/02 11:29:14;;;;;;;16.75;3.97;;;;;;;17.94;37.66;101673.59;4994872;28;20100;-80
2020/12/02 11:31:40;;;;;;;;;;;;;;;17.69;38.21;101679.00;4994931;28;20031;-81
2020/12/02 11:34:43;;;;;;;12.65;3.63;;;;;;;17.71;38.09;101664.88;4993513;28;19921;-81
2020/12/02 11:37:13;;;;;;;10.77;2.42;;;;;;;17.90;37.70;101650.53;4993754;28;20022;-82
2020/12/02 11:40:20;;;;;;;8.68;2.75;;;;;;;17.76;37.89;101639.78;4992329;28;20022;-81
2020/12/02 11:42:57;;;;;;;11.35;3.33;;;;;;;17.43;38.48;101635.00;4992711;28;20088;-81
2020/12/02 11:45:35;;;;;;;15.45;3.65;;;;;;;16.63;39.65;101615.72;4993942;28;20030;-81
2020/12/02 11:48:31;;;;;;;21.50;4.38;;;;;;;17.17;38.63;101615.88;4992136;28;20061;-80